createdAt,value
2022-12-23T00:03:21.307Z,100016.72
2022-12-23T00:08:23.647Z,100010.78
2022-12-23T00:13:43.700Z,100010.72
2022-12-23T00:18:45.267Z,100011.63
2022-12-23T00:23:48.755Z,100010.69
2022-12-23T00:28:50.861Z,100027.22
2022-12-23T00:33:54.201Z,100016.78
2022-12-23T00:39:16.036Z,100024.63
2022-12-23T00:44:17.634Z,100021.16
2022-12-23T00:49:39.387Z,100038.47
2022-12-23T00:54:41.258Z,100028.13
2022-12-23T00:59:42.913Z,100017.66
2022-12-23T01:05:03.145Z,100030.63
2022-12-23T01:10:05.005Z,100020.31
2022-12-23T01:15:07.163Z,100024.69
2022-12-23T01:20:09.077Z,100034.25
2022-12-23T01:25:10.935Z,100034.28
2022-12-23T01:30:12.588Z,100032.56
2022-12-23T01:35:14.083Z,100030.81
2022-12-23T01:40:15.697Z,100035.16
2022-12-23T01:45:27.577Z,100050.72
2022-12-23T01:50:35.195Z,100058.56
2022-12-23T01:55:42.475Z,100054.16
2022-12-23T02:01:02.988Z,100062.00
2022-12-23T02:06:28.167Z,100063.75
2022-12-23T02:11:45.824Z,100067.94
2022-12-23T02:16:58.388Z,100078.25
2022-12-23T02:22:02.577Z,100098.19
2022-12-23T02:27:15.688Z,100088.66
2022-12-23T02:32:36.285Z,100084.38
2022-12-23T02:37:40.436Z,100091.38
2022-12-23T02:43:12.365Z,100081.81
2022-12-23T02:48:22.104Z,100097.47
2022-12-23T02:53:35.212Z,100099.19
2022-12-23T02:58:44.491Z,100111.31
2022-12-23T03:03:48.079Z,100121.66
2022-12-23T03:08:52.194Z,100126.03
2022-12-23T03:14:08.925Z,100126.00
2022-12-23T03:19:10.354Z,100124.22
2022-12-23T03:24:30.762Z,100131.97
2022-12-23T03:29:48.834Z,100145.91
2022-12-23T03:34:55.033Z,100158.81
2022-12-23T03:40:05.233Z,100153.69
2022-12-23T03:45:38.050Z,100149.25
2022-12-23T03:50:39.940Z,100139.72
2022-12-23T03:55:47.418Z,100150.06
2022-12-23T04:00:59.881Z,100150.91
2022-12-23T04:06:04.948Z,100162.19
2022-12-23T04:11:06.693Z,100175.34
2022-12-23T04:16:08.333Z,100183.81
2022-12-23T04:21:09.858Z,100197.72
2022-12-23T04:26:11.335Z,100199.31
2022-12-23T04:31:12.860Z,100203.72
2022-12-23T04:36:14.431Z,100188.94
2022-12-23T04:41:15.937Z,100197.63
2022-12-23T04:46:18.397Z,100202.81
2022-12-23T04:51:19.941Z,100199.31
2022-12-23T04:56:21.420Z,100214.03
2022-12-23T05:01:23.035Z,100219.25
2022-12-23T05:06:24.775Z,100223.50
2022-12-23T05:11:26.378Z,100221.72
2022-12-23T05:16:27.921Z,100220.97
2022-12-23T05:21:29.490Z,100219.06
2022-12-23T05:26:30.950Z,100230.31
2022-12-23T05:31:32.855Z,100229.34
2022-12-23T05:36:34.383Z,100220.47
2022-12-23T05:41:35.847Z,100221.22
2022-12-23T05:46:37.452Z,100219.28
2022-12-23T05:51:38.962Z,100221.03
2022-12-23T05:56:40.737Z,100216.56
2022-12-23T06:01:42.975Z,100229.38
2022-12-23T06:06:44.581Z,100231.00
2022-12-23T06:11:46.058Z,100233.59
2022-12-23T06:16:47.617Z,100257.88
2022-12-23T06:21:49.159Z,100261.31
2022-12-23T06:26:56.496Z,100257.00
2022-12-23T06:31:58.761Z,100270.88
2022-12-23T06:37:00.655Z,100286.47
2022-12-23T06:42:02.131Z,100292.53
2022-12-23T06:47:03.660Z,100282.25
2022-12-23T06:52:05.676Z,100293.38
2022-12-23T06:57:07.157Z,100282.13
2022-12-23T07:02:12.211Z,100284.72
2022-12-23T07:07:13.848Z,100300.28
2022-12-23T07:12:15.361Z,100307.03
2022-12-23T07:17:17.038Z,100312.13
2022-12-23T07:22:18.515Z,100312.84
2022-12-23T07:27:20.051Z,100319.81
2022-12-23T07:32:21.599Z,100329.34
2022-12-23T07:37:23.217Z,100339.00
2022-12-23T07:42:44.046Z,100345.03
2022-12-23T07:47:46.250Z,100352.81
2022-12-23T07:52:47.789Z,100358.91
2022-12-23T07:57:50.469Z,100364.22
2022-12-23T08:02:52.147Z,100363.38
2022-12-23T08:07:53.845Z,100376.56
2022-12-23T08:12:55.529Z,100388.72
2022-12-23T08:17:57.091Z,100398.25
2022-12-23T08:22:58.631Z,100409.56
2022-12-23T08:28:00.160Z,100414.88
2022-12-23T08:33:01.623Z,100411.41
2022-12-23T08:38:03.110Z,100408.00
2022-12-23T08:43:04.576Z,100388.38
2022-12-23T08:48:07.054Z,100394.41
2022-12-23T08:53:09.117Z,100397.84
2022-12-23T08:58:12.160Z,100375.69
2022-12-23T09:03:13.785Z,100369.81
2022-12-23T09:08:15.445Z,100366.56
2022-12-23T09:13:26.197Z,100364.03
2022-12-23T09:18:29.517Z,100362.59
2022-12-23T09:23:31.545Z,100375.81
2022-12-23T09:28:33.117Z,100391.53
2022-12-23T09:33:35.024Z,100389.25
2022-12-23T09:38:36.718Z,100390.25
2022-12-23T09:43:46.845Z,100386.84
2022-12-23T09:49:08.458Z,100384.25
2022-12-23T09:54:16.805Z,100391.19
2022-12-23T09:59:37.155Z,100381.63
2022-12-23T10:05:09.484Z,100366.44
2022-12-23T10:10:20.486Z,100372.28
2022-12-23T10:15:37.255Z,100373.00
2022-12-23T10:20:48.820Z,100369.66
2022-12-23T10:25:52.263Z,100357.72
2022-12-23T10:31:31.059Z,100341.53
2022-12-23T10:36:37.502Z,100343.81
2022-12-23T10:42:08.510Z,100336.19
2022-12-23T10:47:09.905Z,100341.03
2022-12-23T10:52:23.760Z,100328.22
2022-12-23T10:57:25.920Z,100315.16
2022-12-23T11:02:27.555Z,100316.31
2022-12-23T11:07:46.701Z,100312.16
2022-12-23T11:12:51.341Z,100300.41
2022-12-23T11:18:01.955Z,100295.16
2022-12-23T11:23:05.768Z,100289.94
2022-12-23T11:28:15.284Z,100289.03
2022-12-23T11:33:31.375Z,100286.28
2022-12-23T11:38:35.258Z,100287.91
2022-12-23T11:43:39.241Z,100300.06
2022-12-23T11:48:40.749Z,100298.22
2022-12-23T11:53:43.092Z,100296.34
2022-12-23T11:58:53.207Z,100295.28
2022-12-23T12:03:56.669Z,100289.06
2022-12-23T12:09:01.745Z,100288.03
2022-12-23T12:14:06.311Z,100271.41
2022-12-23T12:19:21.033Z,100266.50
2022-12-23T12:24:32.533Z,100258.78
2022-12-23T12:29:54.499Z,100236.41
2022-12-23T12:35:00.796Z,100214.22
2022-12-23T12:40:28.301Z,100217.78
2022-12-23T12:45:39.516Z,100216.81
2022-12-23T12:50:44.107Z,100215.19
2022-12-23T12:55:52.956Z,100204.88
2022-12-23T13:01:21.042Z,100205.66
2022-12-23T13:06:38.126Z,100204.78
2022-12-23T13:11:55.148Z,100198.72
2022-12-23T13:17:32.137Z,100198.72
2022-12-23T13:22:34.181Z,100197.75
2022-12-23T13:27:43.612Z,100190.84
2022-12-23T13:33:07.106Z,100181.91
2022-12-23T13:38:23.178Z,100179.28
2022-12-23T13:43:29.614Z,100171.47
2022-12-23T13:48:59.954Z,100178.34
2022-12-23T13:54:14.383Z,100179.38
2022-12-23T13:59:16.658Z,100172.38
2022-12-23T14:04:56.259Z,100169.69
2022-12-23T14:10:08.880Z,100164.44
2022-12-23T14:15:28.515Z,100167.78
2022-12-23T14:20:38.938Z,100165.88
2022-12-23T14:25:55.919Z,100149.44
2022-12-23T14:30:58.131Z,100140.75
2022-12-23T14:36:26.183Z,100135.53
2022-12-23T14:41:51.948Z,100127.63
2022-12-23T14:46:55.493Z,100125.00
2022-12-23T14:51:57.029Z,100121.41
2022-12-23T14:57:13.535Z,100114.41
2022-12-23T15:02:26.796Z,100119.50
2022-12-23T15:07:33.704Z,100105.53
2022-12-23T15:12:39.334Z,100107.22
2022-12-23T15:17:41.574Z,100107.16
2022-12-23T15:22:45.364Z,100107.16
2022-12-23T15:27:47.228Z,100098.50
2022-12-23T15:32:56.245Z,100098.44
2022-12-23T15:37:59.811Z,100088.94
2022-12-23T15:43:02.725Z,100095.78
2022-12-23T15:48:05.970Z,100089.59
2022-12-23T15:53:09.247Z,100092.19
2022-12-23T15:58:23.349Z,100094.66
2022-12-23T16:03:32.196Z,100079.84
2022-12-23T16:08:34.158Z,100081.50
2022-12-23T16:13:38.218Z,100086.72
2022-12-23T16:18:47.564Z,100080.59
2022-12-23T16:23:52.285Z,100069.25
2022-12-23T16:28:59.256Z,100066.59
2022-12-23T16:34:07.029Z,100060.53
2022-12-23T16:39:22.728Z,100060.44
2022-12-23T16:44:24.221Z,100049.13
2022-12-23T16:49:33.225Z,100036.94
2022-12-23T16:54:35.352Z,100035.97
2022-12-23T16:59:38.878Z,100034.22
2022-12-23T17:04:40.352Z,100036.75
2022-12-23T17:09:41.911Z,100027.16
2022-12-23T17:14:43.423Z,100026.13
2022-12-23T17:19:45.278Z,100023.66
2022-12-23T17:24:46.820Z,100025.34
2022-12-23T17:29:48.368Z,100022.63
2022-12-23T17:34:49.953Z,100017.47
2022-12-23T17:39:51.498Z,100011.31
2022-12-23T17:44:54.048Z,100014.84
2022-12-23T17:49:55.503Z,100016.47
2022-12-23T17:54:57.033Z,100018.94
2022-12-23T17:59:58.629Z,100021.56
2022-12-23T18:05:00.117Z,100018.97
2022-12-23T18:10:01.654Z,100019.81
2022-12-23T18:15:06.092Z,100018.94
2022-12-23T18:20:16.273Z,100025.03
2022-12-23T18:25:24.296Z,100024.13
2022-12-23T18:30:25.867Z,100028.53
2022-12-23T18:35:29.401Z,100033.56
2022-12-23T18:40:32.888Z,100044.78
2022-12-23T18:45:49.156Z,100033.56
2022-12-23T18:50:53.864Z,100026.47
2022-12-23T18:55:55.456Z,100025.50
2022-12-23T19:00:57.087Z,100017.59
2022-12-23T19:06:06.332Z,100027.06
2022-12-23T19:11:16.932Z,100023.56
2022-12-23T19:16:22.010Z,100021.63
2022-12-23T19:21:24.052Z,100023.38
2022-12-23T19:26:25.714Z,100028.50
2022-12-23T19:31:27.332Z,100027.63
2022-12-23T19:36:28.951Z,100030.19
2022-12-23T19:41:30.626Z,100028.50
2022-12-23T19:46:32.117Z,100030.03
2022-12-23T19:51:33.634Z,100035.22
2022-12-23T19:56:35.268Z,100041.22
2022-12-23T20:01:36.794Z,100041.25
2022-12-23T20:06:40.150Z,100054.09
2022-12-23T20:11:44.806Z,100060.25
2022-12-23T20:16:48.257Z,100058.53
2022-12-23T20:21:50.341Z,100058.53
2022-12-23T20:26:52.041Z,100064.59
2022-12-23T20:31:53.536Z,100065.34
2022-12-23T20:36:55.052Z,100055.03
2022-12-23T20:41:57.348Z,100061.91
2022-12-23T20:46:58.901Z,100066.22
2022-12-23T20:52:01.063Z,100073.09
2022-12-23T20:57:02.910Z,100072.28
2022-12-23T21:02:04.551Z,100069.66
2022-12-23T21:07:06.387Z,100072.19
2022-12-23T21:12:07.972Z,100073.09
2022-12-23T21:17:09.489Z,100080.84
2022-12-23T21:22:11.161Z,100068.63
2022-12-23T21:27:12.758Z,100091.19
2022-12-23T21:32:14.273Z,100086.84
2022-12-23T21:37:15.738Z,100082.44
2022-12-23T21:42:17.215Z,100081.66
2022-12-23T21:47:18.815Z,100080.69
2022-12-23T21:52:20.429Z,100088.41
2022-12-23T21:57:21.943Z,100079.84
2022-12-23T22:02:23.465Z,100098.81
2022-12-23T22:07:25.002Z,100099.59
2022-12-23T22:12:26.521Z,100099.53
2022-12-23T22:17:28.037Z,100091.72
2022-12-23T22:22:30.127Z,100097.66
2022-12-23T22:27:31.686Z,100093.38
2022-12-23T22:32:36.558Z,100102.94
2022-12-23T22:37:40.573Z,100103.59
2022-12-23T22:42:42.098Z,100107.94
2022-12-23T22:47:43.678Z,100096.63
2022-12-23T22:52:45.175Z,100093.19
2022-12-23T22:57:46.688Z,100091.44
2022-12-23T23:02:48.194Z,100097.56
2022-12-23T23:07:49.748Z,100096.63
2022-12-23T23:12:51.444Z,100107.94
2022-12-23T23:17:53.001Z,100111.34
2022-12-23T23:22:54.553Z,100113.88
2022-12-23T23:27:56.081Z,100112.03
2022-12-23T23:32:57.599Z,100106.09
2022-12-23T23:37:59.241Z,100097.63
2022-12-23T23:43:00.923Z,100095.75
2022-12-23T23:48:02.453Z,100094.97
2022-12-23T23:53:04.124Z,100100.91
2022-12-23T23:58:07.066Z,100113.94
